Terminal Aerodrome Forecast
Issued by NWS Topeka, KS

Home | Current Version | Previous Version | Text Only | Print | Product List | Glossary Off
Versions: 1 2 3 4 5 6 7 8 9 10 11 12 13 14 15 16 17 18 19 20 21 22 23 24 25 26 27 28 29 30 31 32

000
FTUS43 KTOP 281730
TAFTOP
TAF
KTOP 281730Z 2818/2918 19010G20KT P6SM BKN080 OVC100
     FM282100 21009KT P6SM VCTS BKN050CB
     FM290300 VRB05KT P6SM BKN120
     FM291000 33004KT 5SM BR BKN015=

USA.gov is the U.S. government's official web portal to all federal, state and local government web resources and services.